sensor_id;sensor_type;location;lat;lon;timestamp;P1;durP1;ratioP1;P2;durP2;ratioP2
58015;SDS011;43809;52.110;20.964;2023-04-25T00:01:04;10.70;;;7.47;;
58015;SDS011;43809;52.110;20.964;2023-04-25T00:03:04;9.00;;;7.40;;
58015;SDS011;43809;52.110;20.964;2023-04-25T00:05:06;11.38;;;8.32;;
58015;SDS011;43809;52.110;20.964;2023-04-25T00:07:06;9.88;;;8.13;;
58015;SDS011;43809;52.110;20.964;2023-04-25T00:09:07;10.82;;;8.55;;
58015;SDS011;43809;52.110;20.964;2023-04-25T00:11:09;10.98;;;8.43;;
58015;SDS011;43809;52.110;20.964;2023-04-25T00:13:09;12.80;;;9.35;;
58015;SDS011;43809;52.110;20.964;2023-04-25T00:15:11;13.63;;;9.07;;
58015;SDS011;43809;52.110;20.964;2023-04-25T00:17:11;9.52;;;7.22;;
58015;SDS011;43809;52.110;20.964;2023-04-25T00:19:12;7.82;;;6.20;;
58015;SDS011;43809;52.110;20.964;2023-04-25T00:21:13;8.40;;;6.85;;
58015;SDS011;43809;52.110;20.964;2023-04-25T00:23:14;13.77;;;10.30;;
58015;SDS011;43809;52.110;20.964;2023-04-25T00:25:20;12.50;;;9.77;;
58015;SDS011;43809;52.110;20.964;2023-04-25T00:27:20;11.40;;;8.52;;
58015;SDS011;43809;52.110;20.964;2023-04-25T00:29:20;12.02;;;8.85;;
58015;SDS011;43809;52.110;20.964;2023-04-25T00:31:20;13.77;;;10.23;;
58015;SDS011;43809;52.110;20.964;2023-04-25T00:33:21;11.63;;;9.57;;
58015;SDS011;43809;52.110;20.964;2023-04-25T00:35:21;9.30;;;7.68;;
58015;SDS011;43809;52.110;20.964;2023-04-25T00:37:21;10.82;;;8.07;;
58015;SDS011;43809;52.110;20.964;2023-04-25T00:39:22;8.15;;;7.13;;
58015;SDS011;43809;52.110;20.964;2023-04-25T00:41:34;9.82;;;8.38;;
58015;SDS011;43809;52.110;20.964;2023-04-25T00:43:35;9.35;;;7.57;;
58015;SDS011;43809;52.110;20.964;2023-04-25T00:45:37;10.65;;;7.90;;
58015;SDS011;43809;52.110;20.964;2023-04-25T00:47:37;10.40;;;8.10;;
58015;SDS011;43809;52.110;20.964;2023-04-25T00:49:38;10.70;;;8.02;;
58015;SDS011;43809;52.110;20.964;2023-04-25T00:51:38;9.70;;;7.40;;
58015;SDS011;43809;52.110;20.964;2023-04-25T00:53:50;13.03;;;10.23;;
58015;SDS011;43809;52.110;20.964;2023-04-25T00:55:51;10.25;;;8.77;;
58015;SDS011;43809;52.110;20.964;2023-04-25T00:57:52;11.05;;;8.60;;
58015;SDS011;43809;52.110;20.964;2023-04-25T00:59:52;12.25;;;9.75;;
58015;SDS011;43809;52.110;20.964;2023-04-25T01:02:06;12.30;;;9.05;;
58015;SDS011;43809;52.110;20.964;2023-04-25T01:04:07;12.65;;;9.80;;
58015;SDS011;43809;52.110;20.964;2023-04-25T01:06:07;13.27;;;10.48;;
58015;SDS011;43809;52.110;20.964;2023-04-25T01:08:08;11.88;;;9.27;;
58015;SDS011;43809;52.110;20.964;2023-04-25T01:10:08;11.80;;;8.82;;
58015;SDS011;43809;52.110;20.964;2023-04-25T01:12:09;12.45;;;9.57;;
58015;SDS011;43809;52.110;20.964;2023-04-25T01:14:09;10.65;;;7.80;;
58015;SDS011;43809;52.110;20.964;2023-04-25T01:16:09;9.55;;;7.10;;
58015;SDS011;43809;52.110;20.964;2023-04-25T01:18:09;10.40;;;7.32;;
58015;SDS011;43809;52.110;20.964;2023-04-25T01:20:10;8.95;;;7.18;;
58015;SDS011;43809;52.110;20.964;2023-04-25T01:22:11;9.00;;;6.80;;
58015;SDS011;43809;52.110;20.964;2023-04-25T01:24:11;9.90;;;7.22;;
58015;SDS011;43809;52.110;20.964;2023-04-25T01:26:27;10.07;;;7.15;;
58015;SDS011;43809;52.110;20.964;2023-04-25T01:28:28;10.38;;;7.50;;
58015;SDS011;43809;52.110;20.964;2023-04-25T01:30:28;8.77;;;7.00;;
58015;SDS011;43809;52.110;20.964;2023-04-25T01:34:55;7.82;;;5.55;;
58015;SDS011;43809;52.110;20.964;2023-04-25T01:36:55;6.97;;;5.35;;
58015;SDS011;43809;52.110;20.964;2023-04-25T01:38:56;8.45;;;5.95;;
58015;SDS011;43809;52.110;20.964;2023-04-25T01:40:56;11.52;;;7.72;;
58015;SDS011;43809;52.110;20.964;2023-04-25T01:42:56;8.50;;;6.75;;
58015;SDS011;43809;52.110;20.964;2023-04-25T01:44:56;7.35;;;5.63;;
58015;SDS011;43809;52.110;20.964;2023-04-25T01:46:57;8.38;;;5.35;;
58015;SDS011;43809;52.110;20.964;2023-04-25T01:51:21;6.70;;;4.95;;
58015;SDS011;43809;52.110;20.964;2023-04-25T01:53:21;4.97;;;4.32;;
58015;SDS011;43809;52.110;20.964;2023-04-25T01:55:22;5.40;;;4.30;;
58015;SDS011;43809;52.110;20.964;2023-04-25T01:57:22;4.87;;;3.83;;
58015;SDS011;43809;52.110;20.964;2023-04-25T01:59:23;5.13;;;4.00;;
58015;SDS011;43809;52.110;20.964;2023-04-25T02:01:23;6.22;;;4.70;;
58015;SDS011;43809;52.110;20.964;2023-04-25T02:03:23;5.47;;;4.47;;
58015;SDS011;43809;52.110;20.964;2023-04-25T02:05:23;6.55;;;4.22;;
58015;SDS011;43809;52.110;20.964;2023-04-25T02:07:23;4.22;;;3.67;;
58015;SDS011;43809;52.110;20.964;2023-04-25T02:09:24;5.07;;;3.90;;
58015;SDS011;43809;52.110;20.964;2023-04-25T02:11:35;5.35;;;4.53;;
58015;SDS011;43809;52.110;20.964;2023-04-25T02:13:35;9.52;;;4.85;;
58015;SDS011;43809;52.110;20.964;2023-04-25T02:15:35;6.82;;;4.50;;
58015;SDS011;43809;52.110;20.964;2023-04-25T02:17:36;5.80;;;4.43;;
58015;SDS011;43809;52.110;20.964;2023-04-25T02:19:37;6.45;;;4.40;;
58015;SDS011;43809;52.110;20.964;2023-04-25T02:21:37;6.63;;;4.60;;
58015;SDS011;43809;52.110;20.964;2023-04-25T02:23:37;9.52;;;5.38;;
58015;SDS011;43809;52.110;20.964;2023-04-25T02:25:38;8.50;;;5.57;;
58015;SDS011;43809;52.110;20.964;2023-04-25T02:27:38;7.18;;;4.65;;
58015;SDS011;43809;52.110;20.964;2023-04-25T02:29:38;6.45;;;4.60;;
58015;SDS011;43809;52.110;20.964;2023-04-25T02:31:38;5.95;;;4.47;;
58015;SDS011;43809;52.110;20.964;2023-04-25T02:33:38;6.20;;;4.60;;
58015;SDS011;43809;52.110;20.964;2023-04-25T02:35:39;5.53;;;4.30;;
58015;SDS011;43809;52.110;20.964;2023-04-25T02:37:39;6.82;;;4.40;;
58015;SDS011;43809;52.110;20.964;2023-04-25T02:39:40;5.72;;;4.57;;
58015;SDS011;43809;52.110;20.964;2023-04-25T02:41:52;5.53;;;4.30;;
58015;SDS011;43809;52.110;20.964;2023-04-25T02:43:52;5.95;;;4.30;;
58015;SDS011;43809;52.110;20.964;2023-04-25T02:45:52;5.50;;;4.03;;
58015;SDS011;43809;52.110;20.964;2023-04-25T02:47:53;6.10;;;4.57;;
58015;SDS011;43809;52.110;20.964;2023-04-25T02:49:53;5.72;;;4.32;;
58015;SDS011;43809;52.110;20.964;2023-04-25T02:51:53;6.38;;;4.53;;
58015;SDS011;43809;52.110;20.964;2023-04-25T02:53:55;5.07;;;3.97;;
58015;SDS011;43809;52.110;20.964;2023-04-25T02:55:55;6.55;;;3.88;;
58015;SDS011;43809;52.110;20.964;2023-04-25T02:57:58;5.30;;;3.70;;
58015;SDS011;43809;52.110;20.964;2023-04-25T02:59:58;4.07;;;3.20;;
58015;SDS011;43809;52.110;20.964;2023-04-25T03:01:58;3.88;;;3.03;;
58015;SDS011;43809;52.110;20.964;2023-04-25T03:04:07;5.00;;;3.50;;
58015;SDS011;43809;52.110;20.964;2023-04-25T03:06:07;5.07;;;3.58;;
58015;SDS011;43809;52.110;20.964;2023-04-25T03:08:07;4.43;;;3.40;;
58015;SDS011;43809;52.110;20.964;2023-04-25T03:10:07;6.57;;;4.40;;
58015;SDS011;43809;52.110;20.964;2023-04-25T03:12:08;5.35;;;3.85;;
58015;SDS011;43809;52.110;20.964;2023-04-25T03:16:30;7.60;;;4.75;;
58015;SDS011;43809;52.110;20.964;2023-04-25T03:18:30;5.93;;;4.13;;
58015;SDS011;43809;52.110;20.964;2023-04-25T03:20:31;6.47;;;4.50;;
58015;SDS011;43809;52.110;20.964;2023-04-25T03:22:32;7.32;;;4.68;;
58015;SDS011;43809;52.110;20.964;2023-04-25T03:24:32;4.97;;;4.13;;
58015;SDS011;43809;52.110;20.964;2023-04-25T03:26:32;7.05;;;4.20;;
58015;SDS011;43809;52.110;20.964;2023-04-25T03:28:33;6.85;;;5.00;;
58015;SDS011;43809;52.110;20.964;2023-04-25T03:30:33;6.93;;;4.93;;
58015;SDS011;43809;52.110;20.964;2023-04-25T03:32:34;7.03;;;4.95;;
58015;SDS011;43809;52.110;20.964;2023-04-25T03:34:34;6.95;;;4.88;;
58015;SDS011;43809;52.110;20.964;2023-04-25T03:36:35;5.80;;;4.82;;
58015;SDS011;43809;52.110;20.964;2023-04-25T03:38:48;6.40;;;4.50;;
58015;SDS011;43809;52.110;20.964;2023-04-25T03:40:48;7.10;;;4.80;;
58015;SDS011;43809;52.110;20.964;2023-04-25T03:42:48;6.47;;;4.50;;
58015;SDS011;43809;52.110;20.964;2023-04-25T03:44:49;7.88;;;5.35;;
58015;SDS011;43809;52.110;20.964;2023-04-25T03:46:58;6.93;;;5.00;;
58015;SDS011;43809;52.110;20.964;2023-04-25T03:48:58;6.65;;;4.65;;
58015;SDS011;43809;52.110;20.964;2023-04-25T03:50:59;5.40;;;4.32;;
58015;SDS011;43809;52.110;20.964;2023-04-25T03:52:59;6.88;;;4.75;;
58015;SDS011;43809;52.110;20.964;2023-04-25T03:54:59;4.78;;;3.67;;
58015;SDS011;43809;52.110;20.964;2023-04-25T03:57:00;5.47;;;3.50;;
58015;SDS011;43809;52.110;20.964;2023-04-25T03:59:02;5.28;;;4.15;;
58015;SDS011;43809;52.110;20.964;2023-04-25T04:01:02;5.60;;;3.95;;
58015;SDS011;43809;52.110;20.964;2023-04-25T04:03:07;5.53;;;3.92;;
58015;SDS011;43809;52.110;20.964;2023-04-25T04:05:07;4.97;;;3.92;;
58015;SDS011;43809;52.110;20.964;2023-04-25T04:07:08;5.90;;;4.13;;
58015;SDS011;43809;52.110;20.964;2023-04-25T04:09:09;6.30;;;4.00;;
58015;SDS011;43809;52.110;20.964;2023-04-25T04:11:10;6.15;;;4.50;;
58015;SDS011;43809;52.110;20.964;2023-04-25T04:13:11;6.10;;;4.75;;
58015;SDS011;43809;52.110;20.964;2023-04-25T04:15:11;5.07;;;4.40;;
58015;SDS011;43809;52.110;20.964;2023-04-25T04:17:11;6.95;;;4.88;;
58015;SDS011;43809;52.110;20.964;2023-04-25T04:19:12;8.00;;;5.28;;
58015;SDS011;43809;52.110;20.964;2023-04-25T04:21:12;6.78;;;5.35;;
58015;SDS011;43809;52.110;20.964;2023-04-25T04:23:12;5.95;;;4.95;;
58015;SDS011;43809;52.110;20.964;2023-04-25T04:25:12;9.02;;;5.45;;
58015;SDS011;43809;52.110;20.964;2023-04-25T04:27:13;6.70;;;5.53;;
58015;SDS011;43809;52.110;20.964;2023-04-25T04:29:13;8.68;;;5.90;;
58015;SDS011;43809;52.110;20.964;2023-04-25T04:31:21;6.47;;;4.93;;
58015;SDS011;43809;52.110;20.964;2023-04-25T04:33:21;6.82;;;5.50;;
58015;SDS011;43809;52.110;20.964;2023-04-25T04:35:23;6.93;;;5.18;;
58015;SDS011;43809;52.110;20.964;2023-04-25T04:37:24;7.55;;;5.57;;
58015;SDS011;43809;52.110;20.964;2023-04-25T04:39:24;8.90;;;6.18;;
58015;SDS011;43809;52.110;20.964;2023-04-25T04:41:25;8.13;;;6.75;;
58015;SDS011;43809;52.110;20.964;2023-04-25T04:43:25;7.90;;;6.35;;
58015;SDS011;43809;52.110;20.964;2023-04-25T04:45:26;7.55;;;6.22;;
58015;SDS011;43809;52.110;20.964;2023-04-25T04:47:27;7.60;;;6.20;;
58015;SDS011;43809;52.110;20.964;2023-04-25T04:49:31;8.50;;;6.18;;
58015;SDS011;43809;52.110;20.964;2023-04-25T04:51:31;7.47;;;5.88;;
58015;SDS011;43809;52.110;20.964;2023-04-25T04:53:32;7.13;;;6.25;;
58015;SDS011;43809;52.110;20.964;2023-04-25T04:55:33;8.30;;;6.50;;
58015;SDS011;43809;52.110;20.964;2023-04-25T04:57:33;9.45;;;6.72;;
58015;SDS011;43809;52.110;20.964;2023-04-25T04:59:33;9.02;;;7.03;;
58015;SDS011;43809;52.110;20.964;2023-04-25T05:01:33;9.23;;;7.33;;
58015;SDS011;43809;52.110;20.964;2023-04-25T05:03:39;8.90;;;7.22;;
58015;SDS011;43809;52.110;20.964;2023-04-25T05:05:40;7.82;;;6.38;;
58015;SDS011;43809;52.110;20.964;2023-04-25T05:07:41;10.00;;;7.03;;
58015;SDS011;43809;52.110;20.964;2023-04-25T05:09:41;8.20;;;6.70;;
58015;SDS011;43809;52.110;20.964;2023-04-25T05:11:41;8.93;;;7.50;;
58015;SDS011;43809;52.110;20.964;2023-04-25T05:13:41;7.80;;;6.65;;
58015;SDS011;43809;52.110;20.964;2023-04-25T05:15:41;10.10;;;7.45;;
58015;SDS011;43809;52.110;20.964;2023-04-25T05:17:42;9.40;;;7.72;;
58015;SDS011;43809;52.110;20.964;2023-04-25T05:19:42;10.32;;;7.50;;
58015;SDS011;43809;52.110;20.964;2023-04-25T05:21:42;8.10;;;6.77;;
58015;SDS011;43809;52.110;20.964;2023-04-25T05:23:43;8.45;;;7.00;;
58015;SDS011;43809;52.110;20.964;2023-04-25T05:25:43;10.40;;;7.95;;
58015;SDS011;43809;52.110;20.964;2023-04-25T05:27:49;10.20;;;7.72;;
58015;SDS011;43809;52.110;20.964;2023-04-25T05:29:51;12.15;;;9.02;;
58015;SDS011;43809;52.110;20.964;2023-04-25T05:31:52;9.93;;;8.57;;
58015;SDS011;43809;52.110;20.964;2023-04-25T05:33:52;10.30;;;7.25;;
58015;SDS011;43809;52.110;20.964;2023-04-25T05:35:53;10.20;;;7.57;;
58015;SDS011;43809;52.110;20.964;2023-04-25T05:37:53;10.75;;;8.18;;
58015;SDS011;43809;52.110;20.964;2023-04-25T05:39:53;9.43;;;7.78;;
58015;SDS011;43809;52.110;20.964;2023-04-25T05:41:53;9.75;;;7.35;;
58015;SDS011;43809;52.110;20.964;2023-04-25T05:43:54;9.82;;;6.68;;
58015;SDS011;43809;52.110;20.964;2023-04-25T05:45:54;13.40;;;8.38;;
58015;SDS011;43809;52.110;20.964;2023-04-25T05:47:54;9.82;;;7.55;;
58015;SDS011;43809;52.110;20.964;2023-04-25T05:49:54;10.55;;;8.20;;
58015;SDS011;43809;52.110;20.964;2023-04-25T05:51:55;9.68;;;7.68;;
58015;SDS011;43809;52.110;20.964;2023-04-25T05:53:55;11.80;;;8.35;;
58015;SDS011;43809;52.110;20.964;2023-04-25T05:55:55;9.18;;;7.43;;
58015;SDS011;43809;52.110;20.964;2023-04-25T05:57:55;9.73;;;7.88;;
58015;SDS011;43809;52.110;20.964;2023-04-25T05:59:55;9.27;;;7.43;;
58015;SDS011;43809;52.110;20.964;2023-04-25T06:01:56;10.77;;;7.63;;
58015;SDS011;43809;52.110;20.964;2023-04-25T06:03:57;10.63;;;8.10;;
58015;SDS011;43809;52.110;20.964;2023-04-25T06:05:57;8.82;;;7.05;;
58015;SDS011;43809;52.110;20.964;2023-04-25T06:07:57;9.60;;;7.50;;
58015;SDS011;43809;52.110;20.964;2023-04-25T06:09:58;11.27;;;7.80;;
58015;SDS011;43809;52.110;20.964;2023-04-25T06:11:59;12.45;;;8.55;;
58015;SDS011;43809;52.110;20.964;2023-04-25T06:14:00;11.45;;;8.48;;
58015;SDS011;43809;52.110;20.964;2023-04-25T06:16:00;14.27;;;9.45;;
58015;SDS011;43809;52.110;20.964;2023-04-25T06:18:00;11.70;;;8.30;;
58015;SDS011;43809;52.110;20.964;2023-04-25T06:20:00;11.50;;;8.70;;
58015;SDS011;43809;52.110;20.964;2023-04-25T06:22:01;14.27;;;10.30;;
58015;SDS011;43809;52.110;20.964;2023-04-25T06:24:02;13.98;;;9.40;;
58015;SDS011;43809;52.110;20.964;2023-04-25T06:26:03;13.05;;;8.95;;
58015;SDS011;43809;52.110;20.964;2023-04-25T06:28:03;13.07;;;8.80;;
58015;SDS011;43809;52.110;20.964;2023-04-25T06:30:04;13.15;;;9.65;;
58015;SDS011;43809;52.110;20.964;2023-04-25T06:32:04;10.60;;;8.00;;
58015;SDS011;43809;52.110;20.964;2023-04-25T06:34:04;11.23;;;8.10;;
58015;SDS011;43809;52.110;20.964;2023-04-25T06:36:05;11.85;;;9.40;;
58015;SDS011;43809;52.110;20.964;2023-04-25T06:38:05;13.40;;;8.82;;
58015;SDS011;43809;52.110;20.964;2023-04-25T06:40:05;14.47;;;9.33;;
58015;SDS011;43809;52.110;20.964;2023-04-25T06:42:06;13.02;;;9.15;;
58015;SDS011;43809;52.110;20.964;2023-04-25T06:44:06;12.55;;;8.07;;
58015;SDS011;43809;52.110;20.964;2023-04-25T06:46:06;10.63;;;8.20;;
58015;SDS011;43809;52.110;20.964;2023-04-25T06:48:06;10.82;;;7.72;;
58015;SDS011;43809;52.110;20.964;2023-04-25T06:50:07;11.75;;;8.50;;
58015;SDS011;43809;52.110;20.964;2023-04-25T06:52:07;11.95;;;8.57;;
58015;SDS011;43809;52.110;20.964;2023-04-25T06:54:08;11.57;;;8.32;;
58015;SDS011;43809;52.110;20.964;2023-04-25T06:56:11;14.90;;;9.50;;
58015;SDS011;43809;52.110;20.964;2023-04-25T06:58:11;15.20;;;8.90;;
58015;SDS011;43809;52.110;20.964;2023-04-25T07:00:12;9.50;;;8.00;;
58015;SDS011;43809;52.110;20.964;2023-04-25T07:02:12;12.68;;;8.80;;
58015;SDS011;43809;52.110;20.964;2023-04-25T07:04:12;14.90;;;10.07;;
58015;SDS011;43809;52.110;20.964;2023-04-25T07:06:12;12.75;;;9.30;;
58015;SDS011;43809;52.110;20.964;2023-04-25T07:08:13;14.55;;;10.43;;
58015;SDS011;43809;52.110;20.964;2023-04-25T07:10:13;12.20;;;9.35;;
58015;SDS011;43809;52.110;20.964;2023-04-25T07:12:13;12.97;;;9.53;;
58015;SDS011;43809;52.110;20.964;2023-04-25T07:14:13;11.35;;;9.15;;
58015;SDS011;43809;52.110;20.964;2023-04-25T07:16:13;12.77;;;9.17;;
58015;SDS011;43809;52.110;20.964;2023-04-25T07:18:14;11.52;;;8.95;;
58015;SDS011;43809;52.110;20.964;2023-04-25T07:20:14;11.80;;;9.25;;
58015;SDS011;43809;52.110;20.964;2023-04-25T07:22:16;10.67;;;8.63;;
58015;SDS011;43809;52.110;20.964;2023-04-25T07:24:16;9.98;;;8.98;;
58015;SDS011;43809;52.110;20.964;2023-04-25T07:26:16;11.27;;;8.50;;
58015;SDS011;43809;52.110;20.964;2023-04-25T07:28:16;9.02;;;7.20;;
58015;SDS011;43809;52.110;20.964;2023-04-25T07:30:17;8.98;;;6.80;;
58015;SDS011;43809;52.110;20.964;2023-04-25T07:32:18;7.93;;;6.68;;
58015;SDS011;43809;52.110;20.964;2023-04-25T07:34:18;9.77;;;7.10;;
58015;SDS011;43809;52.110;20.964;2023-04-25T07:36:18;8.02;;;6.47;;
58015;SDS011;43809;52.110;20.964;2023-04-25T07:38:18;7.35;;;6.47;;
58015;SDS011;43809;52.110;20.964;2023-04-25T07:40:19;10.43;;;7.80;;
58015;SDS011;43809;52.110;20.964;2023-04-25T07:42:19;8.60;;;6.90;;
58015;SDS011;43809;52.110;20.964;2023-04-25T07:44:19;8.80;;;6.30;;
58015;SDS011;43809;52.110;20.964;2023-04-25T07:46:19;8.63;;;6.38;;
58015;SDS011;43809;52.110;20.964;2023-04-25T07:48:20;7.87;;;6.47;;
58015;SDS011;43809;52.110;20.964;2023-04-25T07:50:20;8.00;;;6.65;;
58015;SDS011;43809;52.110;20.964;2023-04-25T07:52:20;8.10;;;6.13;;
58015;SDS011;43809;52.110;20.964;2023-04-25T07:54:21;8.27;;;6.57;;
58015;SDS011;43809;52.110;20.964;2023-04-25T07:56:21;7.72;;;6.25;;
58015;SDS011;43809;52.110;20.964;2023-04-25T07:58:21;7.97;;;6.00;;
58015;SDS011;43809;52.110;20.964;2023-04-25T08:00:22;9.73;;;6.28;;
58015;SDS011;43809;52.110;20.964;2023-04-25T08:02:22;8.88;;;6.47;;
58015;SDS011;43809;52.110;20.964;2023-04-25T08:04:23;6.20;;;5.47;;
58015;SDS011;43809;52.110;20.964;2023-04-25T08:06:23;8.20;;;6.13;;
58015;SDS011;43809;52.110;20.964;2023-04-25T08:08:23;7.43;;;6.18;;
58015;SDS011;43809;52.110;20.964;2023-04-25T08:10:23;9.68;;;6.78;;
58015;SDS011;43809;52.110;20.964;2023-04-25T08:12:24;7.70;;;6.80;;
58015;SDS011;43809;52.110;20.964;2023-04-25T08:14:24;7.50;;;6.40;;
58015;SDS011;43809;52.110;20.964;2023-04-25T08:16:25;9.20;;;6.70;;
58015;SDS011;43809;52.110;20.964;2023-04-25T08:18:25;6.60;;;5.90;;
58015;SDS011;43809;52.110;20.964;2023-04-25T08:20:25;6.20;;;5.05;;
58015;SDS011;43809;52.110;20.964;2023-04-25T08:22:25;5.70;;;4.75;;
58015;SDS011;43809;52.110;20.964;2023-04-25T08:24:25;6.60;;;4.80;;
58015;SDS011;43809;52.110;20.964;2023-04-25T08:26:26;6.85;;;5.57;;
58015;SDS011;43809;52.110;20.964;2023-04-25T08:28:26;5.93;;;5.32;;
58015;SDS011;43809;52.110;20.964;2023-04-25T08:30:26;6.37;;;5.30;;
58015;SDS011;43809;52.110;20.964;2023-04-25T08:32:27;7.50;;;6.00;;
58015;SDS011;43809;52.110;20.964;2023-04-25T08:34:27;7.37;;;5.63;;
58015;SDS011;43809;52.110;20.964;2023-04-25T08:36:27;6.78;;;5.10;;
58015;SDS011;43809;52.110;20.964;2023-04-25T08:38:28;6.47;;;5.40;;
58015;SDS011;43809;52.110;20.964;2023-04-25T08:40:28;7.00;;;5.43;;
58015;SDS011;43809;52.110;20.964;2023-04-25T08:42:30;5.00;;;4.50;;
58015;SDS011;43809;52.110;20.964;2023-04-25T08:44:31;5.93;;;4.78;;
58015;SDS011;43809;52.110;20.964;2023-04-25T08:46:33;7.25;;;5.57;;
58015;SDS011;43809;52.110;20.964;2023-04-25T08:48:33;7.07;;;5.85;;
58015;SDS011;43809;52.110;20.964;2023-04-25T08:50:34;6.13;;;5.15;;
58015;SDS011;43809;52.110;20.964;2023-04-25T08:52:36;6.88;;;5.50;;
58015;SDS011;43809;52.110;20.964;2023-04-25T08:54:37;7.20;;;6.28;;
58015;SDS011;43809;52.110;20.964;2023-04-25T08:56:41;7.90;;;6.10;;
58015;SDS011;43809;52.110;20.964;2023-04-25T08:58:47;6.38;;;5.20;;
58015;SDS011;43809;52.110;20.964;2023-04-25T09:00:48;7.20;;;5.95;;
58015;SDS011;43809;52.110;20.964;2023-04-25T09:02:48;9.18;;;7.00;;
58015;SDS011;43809;52.110;20.964;2023-04-25T09:04:49;8.30;;;6.20;;
58015;SDS011;43809;52.110;20.964;2023-04-25T09:06:49;7.55;;;6.22;;
58015;SDS011;43809;52.110;20.964;2023-04-25T09:08:50;7.68;;;6.88;;
58015;SDS011;43809;52.110;20.964;2023-04-25T09:10:50;9.02;;;6.68;;
58015;SDS011;43809;52.110;20.964;2023-04-25T09:13:03;7.20;;;5.97;;
58015;SDS011;43809;52.110;20.964;2023-04-25T09:15:06;5.90;;;5.30;;
58015;SDS011;43809;52.110;20.964;2023-04-25T09:17:06;7.10;;;6.03;;
58015;SDS011;43809;52.110;20.964;2023-04-25T09:19:07;7.82;;;6.35;;
58015;SDS011;43809;52.110;20.964;2023-04-25T09:21:16;8.68;;;6.45;;
58015;SDS011;43809;52.110;20.964;2023-04-25T09:23:16;7.70;;;6.82;;
58015;SDS011;43809;52.110;20.964;2023-04-25T09:25:19;9.25;;;6.28;;
58015;SDS011;43809;52.110;20.964;2023-04-25T09:27:20;7.05;;;6.35;;
58015;SDS011;43809;52.110;20.964;2023-04-25T09:29:32;6.72;;;5.68;;
58015;SDS011;43809;52.110;20.964;2023-04-25T09:31:33;7.65;;;6.43;;
58015;SDS011;43809;52.110;20.964;2023-04-25T09:33:35;7.95;;;6.55;;
58015;SDS011;43809;52.110;20.964;2023-04-25T09:37:37;6.28;;;5.68;;
58015;SDS011;43809;52.110;20.964;2023-04-25T09:39:37;8.02;;;6.50;;
58015;SDS011;43809;52.110;20.964;2023-04-25T09:41:38;8.45;;;6.40;;
58015;SDS011;43809;52.110;20.964;2023-04-25T09:43:39;9.35;;;7.43;;
58015;SDS011;43809;52.110;20.964;2023-04-25T09:45:42;9.27;;;7.45;;
58015;SDS011;43809;52.110;20.964;2023-04-25T09:47:45;8.43;;;6.68;;
58015;SDS011;43809;52.110;20.964;2023-04-25T09:49:46;8.90;;;7.45;;
58015;SDS011;43809;52.110;20.964;2023-04-25T09:51:55;8.85;;;6.68;;
58015;SDS011;43809;52.110;20.964;2023-04-25T09:53:56;7.25;;;6.55;;
58015;SDS011;43809;52.110;20.964;2023-04-25T09:55:56;8.18;;;6.90;;
58015;SDS011;43809;52.110;20.964;2023-04-25T09:57:57;8.65;;;7.30;;
58015;SDS011;43809;52.110;20.964;2023-04-25T10:00:00;8.35;;;7.28;;
58015;SDS011;43809;52.110;20.964;2023-04-25T10:02:01;7.88;;;7.05;;
58015;SDS011;43809;52.110;20.964;2023-04-25T10:04:09;10.50;;;8.07;;
58015;SDS011;43809;52.110;20.964;2023-04-25T10:06:14;9.05;;;8.15;;
58015;SDS011;43809;52.110;20.964;2023-04-25T10:08:18;8.88;;;7.78;;
58015;SDS011;43809;52.110;20.964;2023-04-25T10:10:19;8.50;;;7.30;;
58015;SDS011;43809;52.110;20.964;2023-04-25T10:12:26;7.97;;;7.18;;
58015;SDS011;43809;52.110;20.964;2023-04-25T10:14:26;9.27;;;7.90;;
58015;SDS011;43809;52.110;20.964;2023-04-25T10:16:26;9.57;;;8.40;;
58015;SDS011;43809;52.110;20.964;2023-04-25T10:18:28;10.07;;;8.88;;
58015;SDS011;43809;52.110;20.964;2023-04-25T10:20:29;12.65;;;9.00;;
58015;SDS011;43809;52.110;20.964;2023-04-25T10:22:31;10.45;;;8.75;;
58015;SDS011;43809;52.110;20.964;2023-04-25T10:24:33;11.02;;;9.23;;
58015;SDS011;43809;52.110;20.964;2023-04-25T10:26:35;11.15;;;8.73;;
58015;SDS011;43809;52.110;20.964;2023-04-25T10:28:58;8.93;;;7.88;;
58015;SDS011;43809;52.110;20.964;2023-04-25T10:31:01;10.07;;;7.93;;
58015;SDS011;43809;52.110;20.964;2023-04-25T10:33:03;8.68;;;7.55;;
58015;SDS011;43809;52.110;20.964;2023-04-25T10:35:17;11.00;;;8.50;;
58015;SDS011;43809;52.110;20.964;2023-04-25T10:37:17;11.13;;;8.90;;
58015;SDS011;43809;52.110;20.964;2023-04-25T10:39:22;9.68;;;8.38;;
58015;SDS011;43809;52.110;20.964;2023-04-25T10:41:23;8.88;;;7.53;;
58015;SDS011;43809;52.110;20.964;2023-04-25T10:43:42;9.88;;;8.10;;
58015;SDS011;43809;52.110;20.964;2023-04-25T10:45:52;11.05;;;8.18;;
58015;SDS011;43809;52.110;20.964;2023-04-25T10:47:52;9.95;;;8.50;;
58015;SDS011;43809;52.110;20.964;2023-04-25T10:49:52;10.45;;;8.48;;
58015;SDS011;43809;52.110;20.964;2023-04-25T10:51:58;11.05;;;8.70;;
58015;SDS011;43809;52.110;20.964;2023-04-25T10:54:10;11.52;;;9.00;;
58015;SDS011;43809;52.110;20.964;2023-04-25T10:58:27;10.18;;;8.50;;
58015;SDS011;43809;52.110;20.964;2023-04-25T11:00:27;10.10;;;8.63;;
58015;SDS011;43809;52.110;20.964;2023-04-25T11:02:29;10.25;;;8.38;;
58015;SDS011;43809;52.110;20.964;2023-04-25T11:04:33;9.25;;;7.78;;
58015;SDS011;43809;52.110;20.964;2023-04-25T11:08:52;13.18;;;9.63;;
58015;SDS011;43809;52.110;20.964;2023-04-25T11:10:53;10.48;;;8.88;;
58015;SDS011;43809;52.110;20.964;2023-04-25T11:12:53;9.35;;;8.15;;
58015;SDS011;43809;52.110;20.964;2023-04-25T11:15:03;10.68;;;8.70;;
58015;SDS011;43809;52.110;20.964;2023-04-25T11:17:04;8.65;;;7.65;;
58015;SDS011;43809;52.110;20.964;2023-04-25T11:19:05;8.73;;;7.03;;
58015;SDS011;43809;52.110;20.964;2023-04-25T11:21:06;8.27;;;6.43;;
58015;SDS011;43809;52.110;20.964;2023-04-25T11:23:06;10.25;;;7.13;;
58015;SDS011;43809;52.110;20.964;2023-04-25T11:25:07;7.47;;;6.65;;
58015;SDS011;43809;52.110;20.964;2023-04-25T11:27:08;8.05;;;6.50;;
58015;SDS011;43809;52.110;20.964;2023-04-25T11:29:08;7.57;;;6.75;;
58015;SDS011;43809;52.110;20.964;2023-04-25T11:31:08;7.23;;;6.10;;
58015;SDS011;43809;52.110;20.964;2023-04-25T11:33:09;8.38;;;6.57;;
58015;SDS011;43809;52.110;20.964;2023-04-25T11:35:10;7.75;;;6.40;;
58015;SDS011;43809;52.110;20.964;2023-04-25T11:37:10;7.30;;;6.15;;
58015;SDS011;43809;52.110;20.964;2023-04-25T11:39:12;9.63;;;6.15;;
58015;SDS011;43809;52.110;20.964;2023-04-25T11:41:12;7.47;;;5.72;;
58015;SDS011;43809;52.110;20.964;2023-04-25T11:43:12;6.72;;;6.10;;
58015;SDS011;43809;52.110;20.964;2023-04-25T11:45:13;7.35;;;6.60;;
58015;SDS011;43809;52.110;20.964;2023-04-25T11:47:14;6.50;;;5.72;;
58015;SDS011;43809;52.110;20.964;2023-04-25T11:49:14;6.53;;;5.80;;
58015;SDS011;43809;52.110;20.964;2023-04-25T11:51:15;6.28;;;5.50;;
58015;SDS011;43809;52.110;20.964;2023-04-25T11:53:17;7.70;;;6.40;;
58015;SDS011;43809;52.110;20.964;2023-04-25T11:55:18;6.50;;;5.80;;
58015;SDS011;43809;52.110;20.964;2023-04-25T11:57:21;6.63;;;5.90;;
58015;SDS011;43809;52.110;20.964;2023-04-25T11:59:24;7.15;;;5.15;;
58015;SDS011;43809;52.110;20.964;2023-04-25T12:01:28;7.05;;;6.10;;
58015;SDS011;43809;52.110;20.964;2023-04-25T12:03:30;8.45;;;5.75;;
58015;SDS011;43809;52.110;20.964;2023-04-25T12:05:32;6.15;;;5.35;;
58015;SDS011;43809;52.110;20.964;2023-04-25T12:07:34;5.63;;;5.03;;
58015;SDS011;43809;52.110;20.964;2023-04-25T12:09:34;6.03;;;5.43;;
58015;SDS011;43809;52.110;20.964;2023-04-25T12:13:43;5.10;;;4.40;;